Time,TemperatureF,DewpointF,PressureIn,WindDirection,WindDirectionDegrees,WindSpeedMPH,WindSpeedGustMPH,Humidity,HourlyPrecipIn,Conditions,Clouds,dailyrainin,SolarRadiationWatts/m^2,SoftwareType,DateUTC
2013-01-08 00:24:00,31.1,27.0,30.44,SW,214,2.0,4.0,85,0.00,,,0.00,0,weatherlink.com 1.10,2013-01-08 05:24:00,
2013-01-08 00:39:00,31.2,27.0,30.44,South,173,2.0,5.0,85,0.00,,,0.00,0,weatherlink.com 1.10,2013-01-08 05:39:00,
2013-01-08 00:54:00,31.2,28.0,30.43,SW,219,1.0,6.0,86,0.00,,,0.00,0,weatherlink.com 1.10,2013-01-08 05:54:00,
2013-01-08 01:09:00,31.4,28.0,30.42,SSW,197,1.0,6.0,86,0.00,,,0.00,0,weatherlink.com 1.10,2013-01-08 06:09:00,
2013-01-08 01:24:00,31.5,28.0,30.42,South,172,2.0,5.0,87,0.00,,,0.00,0,weatherlink.com 1.10,2013-01-08 06:24:00,
2013-01-08 01:39:00,31.6,28.0,30.42,South,171,1.0,5.0,87,0.00,,,0.00,0,weatherlink.com 1.10,2013-01-08 06:39:00,
2013-01-08 01:54:00,31.5,28.0,30.42,SSW,200,3.0,6.0,87,0.00,,,0.00,0,weatherlink.com 1.10,2013-01-08 06:54:00,
2013-01-08 02:09:00,31.3,28.0,30.42,SW,214,2.0,6.0,88,0.00,,,0.00,0,weatherlink.com 1.10,2013-01-08 07:09:00,
2013-01-08 02:24:00,31.1,28.0,30.42,SSW,204,1.0,5.0,88,0.00,,,0.00,0,weatherlink.com 1.10,2013-01-08 07:24:00,
2013-01-08 02:39:00,30.9,28.0,30.42,SSW,213,3.0,4.0,88,0.00,,,0.00,0,weatherlink.com 1.10,2013-01-08 07:39:00,
2013-01-08 02:54:00,30.6,28.0,30.41,SW,215,4.0,6.0,88,0.00,,,0.00,0,weatherlink.com 1.10,2013-01-08 07:54:00,
2013-01-08 03:09:00,30.5,27.0,30.41,SSW,211,1.0,6.0,88,0.00,,,0.00,0,weatherlink.com 1.10,2013-01-08 08:09:00,
2013-01-08 03:24:00,30.6,28.0,30.40,WSW,246,2.0,6.0,88,0.00,,,0.00,0,weatherlink.com 1.10,2013-01-08 08:24:00,
2013-01-08 03:39:00,30.8,27.0,30.39,West,277,1.0,6.0,85,0.00,,,0.00,0,weatherlink.com 1.10,2013-01-08 08:39:00,
2013-01-08 03:54:00,31.3,26.0,30.39,SW,221,1.0,8.0,82,0.00,,,0.00,0,weatherlink.com 1.10,2013-01-08 08:54:00,
2013-01-08 04:09:00,31.7,27.0,30.38,SW,215,1.0,7.0,81,0.00,,,0.00,0,weatherlink.com 1.10,2013-01-08 09:09:00,
2013-01-08 04:24:00,31.9,27.0,30.37,SSW,205,4.0,9.0,81,0.00,,,0.00,0,weatherlink.com 1.10,2013-01-08 09:24:00,
2013-01-08 04:39:00,32.1,27.0,30.37,WSW,246,4.0,6.0,80,0.00,,,0.00,0,weatherlink.com 1.10,2013-01-08 09:39:00,
2013-01-08 04:54:00,32.0,27.0,30.37,WSW,258,4.0,7.0,80,0.00,,,0.00,0,weatherlink.com 1.10,2013-01-08 09:54:00,
2013-01-08 05:09:00,31.8,27.0,30.37,SW,214,2.0,7.0,81,0.00,,,0.00,0,weatherlink.com 1.10,2013-01-08 10:09:00,
2013-01-08 05:24:00,31.5,26.0,30.37,WSW,257,1.0,6.0,81,0.00,,,0.00,0,weatherlink.com 1.10,2013-01-08 10:24:00,
2013-01-08 05:39:00,31.8,27.0,30.36,WSW,250,2.0,7.0,81,0.00,,,0.00,0,weatherlink.com 1.10,2013-01-08 10:39:00,
2013-01-08 05:54:00,32.1,27.0,30.37,West,279,2.0,8.0,81,0.00,,,0.00,0,weatherlink.com 1.10,2013-01-08 10:54:00,
2013-01-08 06:09:00,32.3,27.0,30.37,SW,226,2.0,8.0,81,0.00,,,0.00,0,weatherlink.com 1.10,2013-01-08 11:09:00,
2013-01-08 06:24:00,33.0,28.0,30.37,SW,227,5.0,12.0,81,0.00,,,0.00,0,weatherlink.com 1.10,2013-01-08 11:24:00,
2013-01-08 06:39:00,33.3,28.0,30.37,SW,229,4.0,12.0,80,0.00,,,0.00,0,weatherlink.com 1.10,2013-01-08 11:39:00,
2013-01-08 06:54:00,33.7,28.0,30.37,WSW,247,6.0,12.0,79,0.00,,,0.00,0,weatherlink.com 1.10,2013-01-08 11:54:00,
2013-01-08 07:09:00,34.1,28.0,30.38,West,259,9.0,15.0,78,0.00,,,0.00,5,weatherlink.com 1.10,2013-01-08 12:09:00,
2013-01-08 07:25:00,34.3,28.0,30.38,SW,234,6.0,16.0,78,0.00,,,0.00,12,weatherlink.com 1.10,2013-01-08 12:25:00,
2013-01-08 07:40:00,34.7,28.0,30.39,SW,234,6.0,14.0,77,0.00,,,0.00,25,weatherlink.com 1.10,2013-01-08 12:40:00,
2013-01-08 07:55:00,35.4,28.0,30.40,South,189,6.0,14.0,75,0.00,,,0.00,53,weatherlink.com 1.10,2013-01-08 12:55:00,
2013-01-08 08:10:00,36.1,29.0,30.40,SW,234,7.0,13.0,74,0.00,,,0.00,90,weatherlink.com 1.10,2013-01-08 13:10:00,
2013-01-08 08:25:00,37.1,29.0,30.40,WSW,252,6.0,11.0,72,0.00,,,0.00,130,weatherlink.com 1.10,2013-01-08 13:25:00,
2013-01-08 08:40:00,38.1,29.0,30.41,West,259,5.0,19.0,70,0.00,,,0.00,174,weatherlink.com 1.10,2013-01-08 13:40:00,
2013-01-08 08:55:00,38.6,29.0,30.40,WNW,286,11.0,17.0,68,0.00,,,0.00,225,weatherlink.com 1.10,2013-01-08 13:55:00,
2013-01-08 09:10:00,39.0,29.0,30.41,SSW,200,4.0,17.0,68,0.00,,,0.00,262,weatherlink.com 1.10,2013-01-08 14:10:00,
2013-01-08 09:25:00,39.3,29.0,30.41,WSW,256,6.0,18.0,67,0.00,,,0.00,269,weatherlink.com 1.10,2013-01-08 14:25:00,
2013-01-08 09:40:00,39.6,29.0,30.41,SW,230,8.0,20.0,66,0.00,,,0.00,292,weatherlink.com 1.10,2013-01-08 14:40:00,
2013-01-08 09:55:00,39.8,29.0,30.41,WSW,254,12.0,15.0,65,0.00,,,0.00,350,weatherlink.com 1.10,2013-01-08 14:55:00,
2013-01-08 10:10:00,40.1,29.0,30.40,WSW,257,12.0,23.0,64,0.00,,,0.00,373,weatherlink.com 1.10,2013-01-08 15:10:00,
2013-01-08 10:25:00,40.8,29.0,30.40,West,276,10.0,16.0,63,0.00,,,0.00,381,weatherlink.com 1.10,2013-01-08 15:25:00,
2013-01-08 10:40:00,41.3,29.0,30.39,West,271,13.0,15.0,62,0.00,,,0.00,367,weatherlink.com 1.10,2013-01-08 15:40:00,
2013-01-08 10:55:00,41.6,29.0,30.38,WSW,254,7.0,16.0,61,0.00,,,0.00,373,weatherlink.com 1.10,2013-01-08 15:55:00,
2013-01-08 11:10:00,42.8,30.0,30.38,West,259,5.0,12.0,60,0.00,,,0.00,459,weatherlink.com 1.10,2013-01-08 16:10:00,
2013-01-08 11:25:00,43.7,29.0,30.36,WSW,248,9.0,16.0,57,0.00,,,0.00,464,weatherlink.com 1.10,2013-01-08 16:25:00,
2013-01-08 11:40:00,44.2,29.0,30.36,WNW,288,11.0,17.0,55,0.00,,,0.00,483,weatherlink.com 1.10,2013-01-08 16:40:00,
2013-01-08 11:55:00,44.7,29.0,30.35,SSW,213,12.0,16.0,55,0.00,,,0.00,469,weatherlink.com 1.10,2013-01-08 16:55:00,
2013-01-08 12:11:00,45.1,29.0,30.34,SW,233,8.0,17.0,53,0.00,,,0.00,397,weatherlink.com 1.10,2013-01-08 17:11:00,
2013-01-08 12:26:00,45.5,29.0,30.33,WSW,242,9.0,17.0,53,0.00,,,0.00,383,weatherlink.com 1.10,2013-01-08 17:26:00,
2013-01-08 12:41:00,46.2,29.0,30.33,West,277,4.0,15.0,52,0.00,,,0.00,424,weatherlink.com 1.10,2013-01-08 17:41:00,
2013-01-08 12:56:00,46.6,29.0,30.32,WNW,293,6.0,16.0,50,0.00,,,0.00,413,weatherlink.com 1.10,2013-01-08 17:56:00,
2013-01-08 13:11:00,47.0,29.0,30.32,SW,230,7.0,14.0,49,0.00,,,0.00,343,weatherlink.com 1.10,2013-01-08 18:11:00,
2013-01-08 13:26:00,47.3,29.0,30.32,WNW,298,7.0,14.0,49,0.00,,,0.00,388,weatherlink.com 1.10,2013-01-08 18:26:00,
2013-01-08 13:41:00,47.8,29.0,30.32,WNW,294,5.0,12.0,48,0.00,,,0.00,269,weatherlink.com 1.10,2013-01-08 18:41:00,
2013-01-08 13:56:00,47.5,29.0,30.32,WNW,285,7.0,10.0,49,0.00,,,0.00,195,weatherlink.com 1.10,2013-01-08 18:56:00,
2013-01-08 14:11:00,47.0,29.0,30.33,WSW,257,6.0,15.0,49,0.00,,,0.00,197,weatherlink.com 1.10,2013-01-08 19:11:00,
2013-01-08 14:26:00,47.1,29.0,30.34,WNW,288,2.0,12.0,50,0.00,,,0.00,174,weatherlink.com 1.10,2013-01-08 19:26:00,
2013-01-08 14:41:00,46.9,29.0,30.35,SW,219,6.0,11.0,50,0.00,,,0.00,144,weatherlink.com 1.10,2013-01-08 19:41:00,
2013-01-08 14:56:00,47.1,29.0,30.35,WSW,248,9.0,11.0,49,0.00,,,0.00,197,weatherlink.com 1.10,2013-01-08 19:56:00,
2013-01-08 15:11:00,47.2,29.0,30.35,West,271,7.0,11.0,49,0.00,,,0.00,128,weatherlink.com 1.10,2013-01-08 20:11:00,
2013-01-08 15:26:00,46.9,29.0,30.35,SW,233,4.0,11.0,50,0.00,,,0.00,79,weatherlink.com 1.10,2013-01-08 20:26:00,
2013-01-08 15:41:00,46.7,29.0,30.35,WSW,252,6.0,8.0,50,0.00,,,0.00,62,weatherlink.com 1.10,2013-01-08 20:41:00,
2013-01-08 15:56:00,46.8,29.0,30.35,SW,227,5.0,12.0,50,0.00,,,0.00,32,weatherlink.com 1.10,2013-01-08 20:56:00,
2013-01-08 16:11:00,46.3,29.0,30.35,WSW,254,2.0,10.0,51,0.00,,,0.00,12,weatherlink.com 1.10,2013-01-08 21:11:00,
2013-01-08 16:26:00,45.7,29.0,30.35,West,277,4.0,6.0,52,0.00,,,0.00,5,weatherlink.com 1.10,2013-01-08 21:26:00,
2013-01-08 16:41:00,45.2,29.0,30.35,SW,219,5.0,6.0,54,0.00,,,0.00,0,weatherlink.com 1.10,2013-01-08 21:41:00,
2013-01-08 16:56:00,44.7,29.0,30.36,SSW,207,0.0,4.0,55,0.00,,,0.00,0,weatherlink.com 1.10,2013-01-08 21:56:00,
2013-01-08 17:11:00,44.3,29.0,30.36,SSW,207,1.0,2.0,56,0.00,,,0.00,0,weatherlink.com 1.10,2013-01-08 22:11:00,
2013-01-08 17:26:00,43.9,29.0,30.37,SSW,211,0.0,3.0,57,0.00,,,0.00,0,weatherlink.com 1.10,2013-01-08 22:26:00,
2013-01-08 17:41:00,43.5,29.0,30.38,WSW,254,1.0,3.0,58,0.00,,,0.00,0,weatherlink.com 1.10,2013-01-08 22:41:00,
2013-01-08 17:56:00,43.0,29.0,30.38,SSW,204,2.0,4.0,59,0.00,,,0.00,0,weatherlink.com 1.10,2013-01-08 22:56:00,
2013-01-08 18:11:00,42.6,29.0,30.39,SSW,211,0.0,4.0,60,0.00,,,0.00,0,weatherlink.com 1.10,2013-01-08 23:11:00,
2013-01-08 18:26:00,42.4,30.0,30.39,SSW,207,2.0,3.0,61,0.00,,,0.00,0,weatherlink.com 1.10,2013-01-08 23:26:00,
2013-01-08 18:41:00,42.2,29.0,30.39,WSW,238,4.0,4.0,61,0.00,,,0.00,0,weatherlink.com 1.10,2013-01-08 23:41:00,
2013-01-08 18:56:00,41.9,30.0,30.40,SW,221,1.0,4.0,62,0.00,,,0.00,0,weatherlink.com 1.10,2013-01-08 23:56:00,
2013-01-08 19:11:00,41.6,29.0,30.40,WSW,244,2.0,5.0,62,0.00,,,0.00,0,weatherlink.com 1.10,2013-01-09 00:11:00,
2013-01-08 19:26:00,41.5,30.0,30.41,WSW,244,1.0,2.0,63,0.00,,,0.00,0,weatherlink.com 1.10,2013-01-09 00:26:00,
2013-01-08 19:41:00,41.0,30.0,30.41,WSW,252,1.0,3.0,64,0.00,,,0.00,0,weatherlink.com 1.10,2013-01-09 00:41:00,
2013-01-08 19:56:00,40.5,29.0,30.41,WSW,239,3.0,4.0,65,0.00,,,0.00,0,weatherlink.com 1.10,2013-01-09 00:56:00,
2013-01-08 20:11:00,40.1,29.0,30.41,SW,233,1.0,6.0,66,0.00,,,0.00,0,weatherlink.com 1.10,2013-01-09 01:11:00,
2013-01-08 20:26:00,39.7,29.0,30.41,WSW,251,2.0,4.0,67,0.00,,,0.00,0,weatherlink.com 1.10,2013-01-09 01:26:00,
2013-01-08 20:41:00,39.5,30.0,30.41,West,267,1.0,4.0,68,0.00,,,0.00,0,weatherlink.com 1.10,2013-01-09 01:41:00,
2013-01-08 20:56:00,39.1,30.0,30.41,West,274,2.0,5.0,69,0.00,,,0.00,0,weatherlink.com 1.10,2013-01-09 01:56:00,
2013-01-08 21:11:00,38.7,29.0,30.41,WSW,258,1.0,5.0,69,0.00,,,0.00,0,weatherlink.com 1.10,2013-01-09 02:11:00,
2013-01-08 21:26:00,38.2,30.0,30.42,West,271,1.0,3.0,71,0.00,,,0.00,0,weatherlink.com 1.10,2013-01-09 02:26:00,
2013-01-08 21:41:00,38.2,30.0,30.41,West,265,3.0,4.0,71,0.00,,,0.00,0,weatherlink.com 1.10,2013-01-09 02:41:00,
2013-01-08 21:56:00,38.2,30.0,30.41,West,276,3.0,6.0,71,0.00,,,0.00,0,weatherlink.com 1.10,2013-01-09 02:56:00,
2013-01-08 22:26:00,38.5,30.0,30.41,West,281,1.0,6.0,71,0.00,,,0.00,0,weatherlink.com 1.10,2013-01-09 03:26:00,
2013-01-08 22:41:00,38.4,30.0,30.42,West,259,1.0,2.0,71,0.00,,,0.00,0,weatherlink.com 1.10,2013-01-09 03:41:00,
2013-01-08 22:56:00,38.5,29.0,30.41,West,259,1.0,2.0,70,0.00,,,0.00,0,weatherlink.com 1.10,2013-01-09 03:56:00,
2013-01-08 23:11:00,38.0,29.0,30.42,WSW,256,2.0,3.0,70,0.00,,,0.00,0,weatherlink.com 1.10,2013-01-09 04:11:00,
2013-01-08 23:26:00,38.0,29.0,30.42,WSW,256,2.0,3.0,71,0.00,,,0.00,0,weatherlink.com 1.10,2013-01-09 04:26:00,
2013-01-08 23:41:00,37.9,30.0,30.42,ENE,62,0.0,1.0,74,0.00,,,0.00,0,weatherlink.com 1.10,2013-01-09 04:41:00,
2013-01-08 23:56:00,37.9,29.0,30.43,NNW,329,2.0,2.0,70,0.00,,,0.00,0,weatherlink.com 1.10,2013-01-09 04:56:00,